x

West Bermuda - 240 Nm West Of Bermuda (41048) Wave Buoy

7:50am - Sun 20th Apr 2014 All times are UTC.

  • Sig Wave height 5.2ft
  • Swell Direction
  • Peak Period 10s
  • Average Period 6s
  • Wind
    11mph, 13mph gusts
  • Sea Temp 69°f
  • Air Temp 71°f
  • Sea Pressure 1016.8mb

More Historic Weather Station data

Upgrade to MSW Pro to gain access to the past 30 days of data for over 8000 Wavebouys and Weather Stations around the globe.

Join Pro

Comparision Forecast

View Surf forecast
   
Sun 04/20 7:50am 5ft 10s 6s 11 13 mph 1016.8mb 69f 71f
6:50am 5ft 10s 6s 13 16 mph 1017.3mb 70f 71f
5:50am 5.5ft 8s 6s 13 16 mph 1017.7mb 70f 71f
4:50am 5ft 9s 6s 13 16 mph 1018.5mb 70f 71f
3:50am 6ft 8s 6s 13 16 mph 1019mb 70f 71f
2:50am 5ft 8s 6s 13 16 mph 1019.5mb 70f 71f
1:50am 5.5ft 8s 6s 11 13 mph 1020mb 70f 71f
12:50am 5.5ft 8s 6s 13 16 mph 1019.8mb 70f 71f
Sat 04/19 11:50pm 6ft 8s 6s 11 13 mph 1019.5mb 70f 71f
10:50pm 5ft 11s 6s 11 13 mph 1019.5mb 70f 71f
9:50pm 6ft 10s 7s 11 13 mph 1019.4mb 70f 71f
8:50pm 6ft 10s 7s 11 13 mph 1019.7mb 70f 71f
7:50pm 6ft 10s 7s 11 13 mph 1019.7mb 70f 71f
6:50pm 6ft 10s 7s 11 13 mph 1020.2mb 70f 71f
5:50pm 6.5ft 10s 7s 11 13 mph 1020.6mb 70f 71f
4:50pm 6.5ft 11s 7s 13 16 mph 1021.1mb 69f 71f
3:50pm 6ft 11s 7s 11 13 mph 1021.7mb 69f 71f
2:50pm 6ft 11s 7s 11 13 mph 1021.9mb 69f 70f
1:50pm 6ft 8s 7s 11 13 mph 1021.9mb 69f 70f
12:50pm 6ft 11s 7s 11 13 mph 1021.6mb 69f 70f
11:50am 6ft 11s 7s 11
mph
1021.8mb 69f 70f
10:50am 6ft 11s 7s 11
mph
1021.2mb 69f 70f
9:50am 6ft 10s 7s 9 11 mph 1020.9mb 69f 69f
8:50am 6.5ft 8s 7s 9 11 mph 1021.1mb 69f 69f
7:50am 6ft 8s 7s 9 11 mph 1021.4mb 69f 70f
6:50am 6.5ft 11s 7s 9 11 mph 1021.8mb 69f 69f
5:50am 7ft 9s 7s 9 11 mph 1022.2mb 69f 69f
4:50am 7ft 11s 7s 9 13 mph 1022.8mb 69f 70f
3:50am 8ft 10s 8s 11 13 mph 1023mb 69f 70f
2:50am 8ft 8s 7s 11 13 mph 1023.3mb 69f 70f
1:50am 8.5ft 9s 8s 13 16 mph 1023mb 69f 70f
12:50am 8ft 9s 7s 13 16 mph 1023.1mb 69f 70f
Fri 04/18 11:50pm 7ft 10s 7s 13 16 mph 1022.8mb 69f 70f
10:50pm 7ft 10s 7s 13 16 mph 1022.6mb 69f 70f
9:50pm 7ft 9s 7s 13 16 mph 1023.1mb 69f 71f
8:50pm 8ft 9s 7s 13 16 mph 1023.2mb 69f 70f
7:50pm 7ft 10s 7s 9 11 mph 1023.7mb 69f 70f
6:50pm 7.5ft 10s 7s 9 11 mph 1023.9mb 69f 70f
5:50pm 7ft 9s 7s 11 13 mph 1024mb 69f 71f
4:50pm 7.5ft 10s 7s 13 18 mph 1023.9mb 69f 70f
3:50pm 8ft 9s 7s 16 20 mph 1023.8mb 69f 71f
2:50pm 8ft 9s 7s 16 18 mph 1024.4mb 69f 70f
1:50pm 8ft 10s 7s 16 18 mph 1024.1mb 69f 70f
12:50pm 7ft 8s 7s 16 18 mph 1023.7mb 69f 70f
11:50am 8ft 10s 7s 13 18 mph 1023.6mb 69f 70f
10:50am 8ft 9s 7s 11 13 mph 1023.5mb 69f 70f
9:50am 8ft 10s 7s 13 18 mph 1022.8mb 69f 70f
8:50am 8.5ft 9s 7s 13 16 mph 1022.8mb 69f 70f
7:50am 8ft 9s 7s 13 18 mph 1022.8mb 69f 70f
6:50am 8ft 10s 7s 13 18 mph 1023.6mb 69f 70f
5:50am 7.5ft 10s 7s 9 13 mph 1023.9mb 69f 70f
4:50am 9ft 9s 7s 11 13 mph 1024.1mb 69f 70f
3:50am 9ft 9s 7s 11 13 mph 1024.4mb 69f 70f
2:50am 8ft 9s 7s 11 16 mph 1024.7mb 69f 70f
1:50am 9ft 9s 7s 7 9 mph 1024.6mb 69f 70f
12:50am 9ft 9s 8s 9 13 mph 1024.7mb 69f 70f
Thu 04/17 10:50pm 9ft 9s 8s 16 20 mph 1023.8mb 69f 70f
9:50pm 8ft 9s 7s 13 16 mph 1024mb 69f 70f
8:50pm 9.5ft 10s 8s 11 13 mph 1023.8mb 69f 70f
7:50pm 9ft 9s 7s 7 11 mph 1024.3mb 70f 70f
6:50pm 9.5ft 9s 8s 7 9 mph 1024.9mb 70f 70f
5:50pm 9.5ft 10s 8s 7 9 mph 1025.4mb 69f 70f
4:50pm 9ft 10s 8s 11 13 mph 1024.7mb 69f 71f
3:50pm 9.5ft 10s 8s 13 16 mph 1024.4mb 69f 70f
2:50pm 9.5ft 10s 8s 7 9 mph 1025mb 69f 70f
1:50pm 9ft 11s 8s 7 13 mph 1023.9mb 69f 70f
12:50pm 9.5ft 11s 8s 4 9 mph 1023.4mb 69f 70f
11:50am 9ft 11s 8s 4 9 mph 1023.4mb 69f 70f
10:50am 9ft 11s 8s 7 11 mph 1022.6mb 69f 70f
9:50am 9ft 10s 8s 7 9 mph 1021.6mb 69f 70f
8:50am 10ft 11s 8s 9 11 mph 1021.1mb 69f 70f
7:50am 9ft 11s 8s 9 11 mph 1020.9mb 69f 70f
6:50am 9ft 11s 8s 9 13 mph 1020.5mb 69f 70f
5:50am 10ft 11s 8s 9 13 mph 1020.6mb 69f 70f
4:50am 9ft 11s 8s 2 4 mph 1021.3mb 69f 70f
3:50am 9.5ft 11s 8s 9 13 mph 1021mb 69f 70f
2:50am 8.5ft 11s 8s 11 13 mph 1020.7mb 69f 70f
1:50am 8ft 9s 7s 11 13 mph 1021.2mb 69f 70f
12:50am 8ft 9s 7s 13 16 mph 1019.9mb 69f 70f
Wed 04/16 11:50pm 8ft 9s 7s 7
mph
1020.7mb 69f 70f
10:50pm 7.5ft 10s 7s 7 9 mph 1019.9mb 69f 70f
9:50pm 8ft 9s 7s 9
mph
1019.5mb 69f 70f
8:50pm 7.5ft 9s 7s 7 9 mph 1019.3mb 69f 70f
7:50pm 8ft 9s 7s 9
mph
1019.1mb 70f 70f
6:50pm 7ft 9s 7s 9
mph
1019.1mb 69f 70f
5:50pm 7.5ft 9s 7s 11 13 mph 1019.1mb 69f 70f
4:50pm 7.5ft 8s 7s 11 13 mph 1019.3mb 69f 70f
3:50pm 7.5ft 9s 7s 13 16 mph 1019.1mb 69f 70f
2:50pm 7ft 9s 7s 11 13 mph 1019.6mb 69f 70f
1:50pm 7ft 9s 7s 11 13 mph 1019.1mb 69f 70f
12:50pm 7ft 9s 6s 11 16 mph 1018.6mb 68f 70f
11:50am 8ft 9s 6s 16 18 mph 1017.7mb 68f 70f
10:50am 8ft 8s 6s 18 22 mph 1016.7mb 68f 70f
9:50am 7.5ft 9s 6s 20 25 mph 1015.8mb 69f 70f
8:50am 8ft 9s 7s 20 22 mph 1015.6mb 69f 70f